sensor_id;sensor_type;location;lat;lon;timestamp;pressure;altitude;pressure_sealevel;temperature;humidity
11605;BME280;5858;43.076;25.626;2023-09-19T00:01:33;99577.81;;;16.37;91.44
11605;BME280;5858;43.076;25.626;2023-09-19T00:04:02;99645.78;;;16.86;90.69
11605;BME280;5858;43.076;25.626;2023-09-19T00:06:29;99650.16;;;16.87;90.03
11605;BME280;5858;43.076;25.626;2023-09-19T00:08:57;99647.25;;;16.82;90.45
11605;BME280;5858;43.076;25.626;2023-09-19T00:11:26;99639.38;;;16.80;90.49
11605;BME280;5858;43.076;25.626;2023-09-19T00:13:52;99634.53;;;16.89;90.33
11605;BME280;5858;43.076;25.626;2023-09-19T00:16:20;99634.38;;;16.84;90.33
11605;BME280;5858;43.076;25.626;2023-09-19T00:18:47;99641.91;;;16.75;90.41
11605;BME280;5858;43.076;25.626;2023-09-19T00:21:16;99624.72;;;16.56;90.56
11605;BME280;5858;43.076;25.626;2023-09-19T00:23:44;99631.56;;;16.65;90.58
11605;BME280;5858;43.076;25.626;2023-09-19T00:26:11;99630.38;;;16.35;91.41
11605;BME280;5858;43.076;25.626;2023-09-19T00:28:38;99635.31;;;16.45;92.36
11605;BME280;5858;43.076;25.626;2023-09-19T00:31:07;99482.13;;;15.56;92.02
11605;BME280;5858;43.076;25.626;2023-09-19T00:33:35;99658.78;;;16.51;92.03
11605;BME280;5858;43.076;25.626;2023-09-19T00:36:02;99631.97;;;16.49;91.86
11605;BME280;5858;43.076;25.626;2023-09-19T00:38:32;99566.09;;;15.99;91.81
11605;BME280;5858;43.076;25.626;2023-09-19T00:40:59;99622.63;;;16.58;91.61
11605;BME280;5858;43.076;25.626;2023-09-19T00:43:26;99624.06;;;16.54;91.61
11605;BME280;5858;43.076;25.626;2023-09-19T00:45:56;99519.84;;;15.82;92.23
11605;BME280;5858;43.076;25.626;2023-09-19T00:48:24;99545.31;;;16.06;90.95
11605;BME280;5858;43.076;25.626;2023-09-19T00:50:53;99442.56;;;15.30;91.24
11605;BME280;5858;43.076;25.626;2023-09-19T00:53:21;99604.25;;;16.22;92.15
11605;BME280;5858;43.076;25.626;2023-09-19T00:55:52;99624.53;;;16.38;92.19
11605;BME280;5858;43.076;25.626;2023-09-19T00:58:19;99605.53;;;16.06;92.97
11605;BME280;5858;43.076;25.626;2023-09-19T01:00:47;99405.06;;;15.08;92.37
11605;BME280;5858;43.076;25.626;2023-09-19T01:03:14;99567.38;;;15.90;92.70
11605;BME280;5858;43.076;25.626;2023-09-19T01:05:41;99612.13;;;16.24;92.67
11605;BME280;5858;43.076;25.626;2023-09-19T01:08:09;99514.09;;;15.59;92.41
11605;BME280;5858;43.076;25.626;2023-09-19T01:10:46;99622.13;;;16.17;93.16
11605;BME280;5858;43.076;25.626;2023-09-19T01:13:22;99509.78;;;15.25;93.61
11605;BME280;5858;43.076;25.626;2023-09-19T01:16:07;99644.78;;;16.09;93.71
11605;BME280;5858;43.076;25.626;2023-09-19T01:18:47;99621.72;;;16.13;93.40
11605;BME280;5858;43.076;25.626;2023-09-19T01:21:26;99565.56;;;15.70;94.02
11605;BME280;5858;43.076;25.626;2023-09-19T01:24:16;99622.31;;;16.22;93.21
11605;BME280;5858;43.076;25.626;2023-09-19T01:27:06;99602.63;;;16.15;92.75
11605;BME280;5858;43.076;25.626;2023-09-19T01:29:42;99609.22;;;16.25;92.70
11605;BME280;5858;43.076;25.626;2023-09-19T01:32:15;99492.38;;;15.14;94.38
11605;BME280;5858;43.076;25.626;2023-09-19T01:34:47;99611.16;;;15.92;95.37
11605;BME280;5858;43.076;25.626;2023-09-19T01:37:15;99618.00;;;16.01;94.69
11605;BME280;5858;43.076;25.626;2023-09-19T01:39:46;99468.09;;;15.27;94.37
11605;BME280;5858;43.076;25.626;2023-09-19T01:42:24;99417.72;;;14.95;94.23
11605;BME280;5858;43.076;25.626;2023-09-19T01:45:01;99596.78;;;16.18;94.51
11605;BME280;5858;43.076;25.626;2023-09-19T01:47:34;99413.41;;;14.80;96.34
11605;BME280;5858;43.076;25.626;2023-09-19T01:50:11;99572.00;;;15.63;97.00
11605;BME280;5858;43.076;25.626;2023-09-19T01:52:48;99594.75;;;16.00;95.48
11605;BME280;5858;43.076;25.626;2023-09-19T01:55:16;99539.81;;;15.48;96.63
11605;BME280;5858;43.076;25.626;2023-09-19T01:57:51;99591.50;;;15.71;96.75
11605;BME280;5858;43.076;25.626;2023-09-19T02:00:22;99596.06;;;15.71;96.99
11605;BME280;5858;43.076;25.626;2023-09-19T02:02:51;99553.09;;;15.50;96.48
11605;BME280;5858;43.076;25.626;2023-09-19T02:05:24;99573.84;;;15.69;96.21
11605;BME280;5858;43.076;25.626;2023-09-19T02:07:52;99443.84;;;14.88;95.79
11605;BME280;5858;43.076;25.626;2023-09-19T02:10:21;99594.56;;;15.88;94.66
11605;BME280;5858;43.076;25.626;2023-09-19T02:12:48;99581.91;;;15.89;94.92
11605;BME280;5858;43.076;25.626;2023-09-19T02:15:17;99512.66;;;15.30;96.41
11605;BME280;5858;43.076;25.626;2023-09-19T02:17:44;99585.25;;;15.58;97.32
11605;BME280;5858;43.076;25.626;2023-09-19T02:20:13;99484.06;;;15.02;96.95
11605;BME280;5858;43.076;25.626;2023-09-19T02:22:41;99584.03;;;15.67;96.12
11605;BME280;5858;43.076;25.626;2023-09-19T02:25:09;99526.97;;;15.24;96.81
11605;BME280;5858;43.076;25.626;2023-09-19T02:27:36;99418.56;;;14.42;97.10
11605;BME280;5858;43.076;25.626;2023-09-19T02:30:06;99584.84;;;15.41;97.98
11605;BME280;5858;43.076;25.626;2023-09-19T02:32:33;99562.00;;;15.43;97.97
11605;BME280;5858;43.076;25.626;2023-09-19T02:35:05;99534.44;;;15.28;97.67
11605;BME280;5858;43.076;25.626;2023-09-19T02:37:35;99431.44;;;14.73;96.92
11605;BME280;5858;43.076;25.626;2023-09-19T02:40:03;99511.00;;;15.29;95.89
11605;BME280;5858;43.076;25.626;2023-09-19T02:42:44;99479.09;;;14.79;97.15
11605;BME280;5858;43.076;25.626;2023-09-19T02:45:14;99520.75;;;15.23;96.85
11605;BME280;5858;43.076;25.626;2023-09-19T02:47:43;99441.34;;;14.53;97.10
11605;BME280;5858;43.076;25.626;2023-09-19T02:50:09;99543.56;;;15.34;96.84
11605;BME280;5858;43.076;25.626;2023-09-19T02:52:38;99557.47;;;15.24;97.57
11605;BME280;5858;43.076;25.626;2023-09-19T02:55:05;99369.59;;;14.12;97.54
11605;BME280;5858;43.076;25.626;2023-09-19T02:57:34;99552.06;;;15.37;97.08
11605;BME280;5858;43.076;25.626;2023-09-19T03:00:07;99476.19;;;14.88;96.69
11605;BME280;5858;43.076;25.626;2023-09-19T03:02:36;99523.84;;;14.94;97.89
11605;BME280;5858;43.076;25.626;2023-09-19T03:05:04;99438.13;;;14.16;98.46
11605;BME280;5858;43.076;25.626;2023-09-19T03:07:31;99554.13;;;15.09;98.53
11605;BME280;5858;43.076;25.626;2023-09-19T03:10:00;99457.72;;;14.58;97.42
11605;BME280;5858;43.076;25.626;2023-09-19T03:12:28;99525.94;;;14.98;97.19
11605;BME280;5858;43.076;25.626;2023-09-19T03:14:55;99527.38;;;14.81;97.58
11605;BME280;5858;43.076;25.626;2023-09-19T03:17:22;99406.44;;;13.99;98.48
11605;BME280;5858;43.076;25.626;2023-09-19T03:19:49;99488.78;;;14.54;97.33
11605;BME280;5858;43.076;25.626;2023-09-19T03:22:16;99508.03;;;14.51;97.05
11605;BME280;5858;43.076;25.626;2023-09-19T03:24:43;99562.81;;;14.85;98.45
11605;BME280;5858;43.076;25.626;2023-09-19T03:27:13;99516.09;;;14.44;97.75
11605;BME280;5858;43.076;25.626;2023-09-19T03:29:41;99570.47;;;14.74;98.38
11605;BME280;5858;43.076;25.626;2023-09-19T03:32:08;99502.34;;;14.20;98.93
11605;BME280;5858;43.076;25.626;2023-09-19T03:34:36;99582.44;;;14.65;99.34
11605;BME280;5858;43.076;25.626;2023-09-19T03:37:03;99581.19;;;14.61;99.46
11605;BME280;5858;43.076;25.626;2023-09-19T03:39:32;99503.31;;;14.12;98.72
11605;BME280;5858;43.076;25.626;2023-09-19T03:41:59;99418.25;;;13.50;99.27
11605;BME280;5858;43.076;25.626;2023-09-19T03:44:27;99397.75;;;13.14;99.78
11605;BME280;5858;43.076;25.626;2023-09-19T03:46:54;99473.91;;;13.56;100.00
11605;BME280;5858;43.076;25.626;2023-09-19T03:49:22;99593.81;;;14.54;100.00
11605;BME280;5858;43.076;25.626;2023-09-19T03:51:49;99597.97;;;14.63;99.44
11605;BME280;5858;43.076;25.626;2023-09-19T03:54:16;99571.19;;;14.48;99.21
11605;BME280;5858;43.076;25.626;2023-09-19T03:56:45;99594.31;;;14.77;98.13
11605;BME280;5858;43.076;25.626;2023-09-19T03:59:12;99528.28;;;13.93;100.00
11605;BME280;5858;43.076;25.626;2023-09-19T04:01:40;99510.78;;;13.69;100.00
11605;BME280;5858;43.076;25.626;2023-09-19T04:04:08;99543.78;;;13.84;100.00
11605;BME280;5858;43.076;25.626;2023-09-19T04:06:35;99505.50;;;13.47;100.00
11605;BME280;5858;43.076;25.626;2023-09-19T04:09:02;99487.38;;;13.63;100.00
11605;BME280;5858;43.076;25.626;2023-09-19T04:11:32;99560.81;;;13.98;100.00
11605;BME280;5858;43.076;25.626;2023-09-19T04:14:03;99558.50;;;13.95;99.92
11605;BME280;5858;43.076;25.626;2023-09-19T04:16:30;99595.34;;;14.35;99.79
11605;BME280;5858;43.076;25.626;2023-09-19T04:18:58;99599.69;;;14.30;99.94
11605;BME280;5858;43.076;25.626;2023-09-19T04:21:25;99477.22;;;13.58;99.26
11605;BME280;5858;43.076;25.626;2023-09-19T04:23:53;99591.13;;;14.61;97.82
11605;BME280;5858;43.076;25.626;2023-09-19T04:26:20;99568.44;;;14.35;98.31
11605;BME280;5858;43.076;25.626;2023-09-19T04:28:47;99596.47;;;14.47;98.52
11605;BME280;5858;43.076;25.626;2023-09-19T04:31:14;99596.47;;;14.47;98.52
11605;BME280;5858;43.076;25.626;2023-09-19T04:33:42;99596.25;;;14.49;98.80
11605;BME280;5858;43.076;25.626;2023-09-19T04:36:10;99595.69;;;14.60;98.61
11605;BME280;5858;43.076;25.626;2023-09-19T04:38:38;99585.53;;;14.62;98.65
11605;BME280;5858;43.076;25.626;2023-09-19T04:41:05;99582.88;;;14.69;98.26
11605;BME280;5858;43.076;25.626;2023-09-19T04:43:32;99575.66;;;14.76;98.07
11605;BME280;5858;43.076;25.626;2023-09-19T04:45:58;99501.56;;;14.39;98.21
11605;BME280;5858;43.076;25.626;2023-09-19T04:48:26;99559.28;;;14.84;97.69
11605;BME280;5858;43.076;25.626;2023-09-19T04:50:54;99448.47;;;14.13;98.11
11605;BME280;5858;43.076;25.626;2023-09-19T04:53:25;99612.16;;;14.98;98.66
11605;BME280;5858;43.076;25.626;2023-09-19T04:56:01;99583.34;;;14.99;98.00
11605;BME280;5858;43.076;25.626;2023-09-19T04:58:54;99625.00;;;14.96;97.73
11605;BME280;5858;43.076;25.626;2023-09-19T05:01:25;99472.22;;;14.64;95.90
11605;BME280;5858;43.076;25.626;2023-09-19T05:04:00;99459.19;;;14.74;93.56
11605;BME280;5858;43.076;25.626;2023-09-19T05:06:45;99530.69;;;15.69;92.41
11605;BME280;5858;43.076;25.626;2023-09-19T05:12:17;99438.34;;;15.60;89.77
11605;BME280;5858;43.076;25.626;2023-09-19T05:14:47;99513.72;;;16.51;88.37
11605;BME280;5858;43.076;25.626;2023-09-19T05:17:47;99507.66;;;16.69;87.00
11605;BME280;5858;43.076;25.626;2023-09-19T05:20:34;99547.09;;;17.33;86.87
11605;BME280;5858;43.076;25.626;2023-09-19T05:23:05;99579.16;;;17.79;84.93
11605;BME280;5858;43.076;25.626;2023-09-19T05:25:35;99484.50;;;17.48;84.20
11605;BME280;5858;43.076;25.626;2023-09-19T05:28:05;99509.09;;;17.71;83.45
11605;BME280;5858;43.076;25.626;2023-09-19T05:30:35;99528.78;;;17.78;81.71
11605;BME280;5858;43.076;25.626;2023-09-19T05:33:04;99568.59;;;18.14;81.82
11605;BME280;5858;43.076;25.626;2023-09-19T05:35:31;99585.66;;;18.51;80.41
11605;BME280;5858;43.076;25.626;2023-09-19T05:37:58;99343.84;;;17.11;78.72
11605;BME280;5858;43.076;25.626;2023-09-19T05:40:25;99508.19;;;18.44;78.75
11605;BME280;5858;43.076;25.626;2023-09-19T05:42:54;99574.59;;;19.13;77.89
11605;BME280;5858;43.076;25.626;2023-09-19T05:45:21;99533.75;;;18.96;76.90
11605;BME280;5858;43.076;25.626;2023-09-19T05:47:48;99566.31;;;19.61;75.03
11605;BME280;5858;43.076;25.626;2023-09-19T05:50:17;99547.41;;;19.78;72.66
11605;BME280;5858;43.076;25.626;2023-09-19T05:52:51;99555.88;;;20.05;71.50
11605;BME280;5858;43.076;25.626;2023-09-19T05:55:18;99565.66;;;20.41;70.91
11605;BME280;5858;43.076;25.626;2023-09-19T05:57:49;99565.91;;;20.39;68.77
11605;BME280;5858;43.076;25.626;2023-09-19T06:00:19;99565.41;;;20.42;68.66
11605;BME280;5858;43.076;25.626;2023-09-19T06:02:50;99564.56;;;20.99;66.36
11605;BME280;5858;43.076;25.626;2023-09-19T06:05:17;99525.56;;;21.10;64.58
11605;BME280;5858;43.076;25.626;2023-09-19T06:07:44;99565.50;;;21.72;62.63
11605;BME280;5858;43.076;25.626;2023-09-19T06:10:12;99503.56;;;21.28;62.94
11605;BME280;5858;43.076;25.626;2023-09-19T06:12:40;99561.63;;;21.84;60.17
11605;BME280;5858;43.076;25.626;2023-09-19T06:15:09;99555.75;;;21.76;60.12
11605;BME280;5858;43.076;25.626;2023-09-19T06:17:43;99562.34;;;21.96;59.85
11605;BME280;5858;43.076;25.626;2023-09-19T06:20:15;99536.00;;;21.47;60.78
11605;BME280;5858;43.076;25.626;2023-09-19T06:22:44;99564.75;;;21.93;60.60
11605;BME280;5858;43.076;25.626;2023-09-19T06:25:12;99560.41;;;22.14;60.09
11605;BME280;5858;43.076;25.626;2023-09-19T06:27:41;99473.84;;;21.60;56.89
11605;BME280;5858;43.076;25.626;2023-09-19T06:30:09;99469.94;;;21.01;60.42
11605;BME280;5858;43.076;25.626;2023-09-19T06:32:37;99525.09;;;21.63;60.63
11605;BME280;5858;43.076;25.626;2023-09-19T06:35:06;99441.78;;;21.12;57.73
11605;BME280;5858;43.076;25.626;2023-09-19T06:37:34;99544.47;;;21.84;57.77
11605;BME280;5858;43.076;25.626;2023-09-19T06:40:06;99551.38;;;21.91;59.06
11605;BME280;5858;43.076;25.626;2023-09-19T06:42:34;99582.66;;;22.06;60.35
11605;BME280;5858;43.076;25.626;2023-09-19T06:45:03;99554.34;;;22.07;58.34
11605;BME280;5858;43.076;25.626;2023-09-19T06:47:31;99450.84;;;21.51;58.75
11605;BME280;5858;43.076;25.626;2023-09-19T06:49:58;99528.84;;;22.18;60.64
11605;BME280;5858;43.076;25.626;2023-09-19T06:52:26;99554.22;;;22.40;58.23
11605;BME280;5858;43.076;25.626;2023-09-19T06:54:53;99557.88;;;22.51;56.78
11605;BME280;5858;43.076;25.626;2023-09-19T06:57:21;99565.66;;;22.64;58.44
11605;BME280;5858;43.076;25.626;2023-09-19T06:59:48;99529.91;;;22.60;57.97
11605;BME280;5858;43.076;25.626;2023-09-19T07:02:15;99545.28;;;22.93;57.91
11605;BME280;5858;43.076;25.626;2023-09-19T07:04:42;99532.41;;;22.89;54.96
11605;BME280;5858;43.076;25.626;2023-09-19T07:07:09;99446.31;;;22.49;54.90
11605;BME280;5858;43.076;25.626;2023-09-19T07:09:40;99451.00;;;22.54;56.03
11605;BME280;5858;43.076;25.626;2023-09-19T07:12:08;99511.50;;;23.00;55.25
11605;BME280;5858;43.076;25.626;2023-09-19T07:14:35;99501.34;;;22.95;55.15
11605;BME280;5858;43.076;25.626;2023-09-19T07:17:02;99499.88;;;22.82;53.88
11605;BME280;5858;43.076;25.626;2023-09-19T07:19:30;99446.78;;;22.41;53.96
11605;BME280;5858;43.076;25.626;2023-09-19T07:21:57;99540.88;;;23.19;55.52
11605;BME280;5858;43.076;25.626;2023-09-19T07:24:24;99427.59;;;22.31;52.85
11605;BME280;5858;43.076;25.626;2023-09-19T07:26:55;99535.88;;;23.11;54.40
11605;BME280;5858;43.076;25.626;2023-09-19T07:29:22;99493.91;;;22.63;53.26
11605;BME280;5858;43.076;25.626;2023-09-19T07:31:49;99551.19;;;23.12;53.15
11605;BME280;5858;43.076;25.626;2023-09-19T07:34:16;99548.13;;;23.36;56.64
11605;BME280;5858;43.076;25.626;2023-09-19T07:36:43;99489.31;;;23.23;53.97
11605;BME280;5858;43.076;25.626;2023-09-19T07:39:12;99522.16;;;23.65;51.90
11605;BME280;5858;43.076;25.626;2023-09-19T07:41:39;99479.66;;;23.52;52.51
11605;BME280;5858;43.076;25.626;2023-09-19T07:44:08;99424.94;;;23.37;51.81
11605;BME280;5858;43.076;25.626;2023-09-19T07:46:36;99480.78;;;24.09;51.46
11605;BME280;5858;43.076;25.626;2023-09-19T07:49:04;99460.00;;;24.08;49.49
11605;BME280;5858;43.076;25.626;2023-09-19T07:51:31;99514.47;;;24.14;49.11
11605;BME280;5858;43.076;25.626;2023-09-19T07:54:08;99386.53;;;23.07;50.33
11605;BME280;5858;43.076;25.626;2023-09-19T07:56:36;99392.31;;;23.15;49.49
11605;BME280;5858;43.076;25.626;2023-09-19T07:59:03;99498.75;;;23.90;49.68
11605;BME280;5858;43.076;25.626;2023-09-19T08:01:31;99503.22;;;24.11;50.45
11605;BME280;5858;43.076;25.626;2023-09-19T08:03:58;99498.09;;;24.25;50.51
11605;BME280;5858;43.076;25.626;2023-09-19T08:06:25;99491.59;;;24.31;49.82
11605;BME280;5858;43.076;25.626;2023-09-19T08:08:55;99440.38;;;24.16;49.54
11605;BME280;5858;43.076;25.626;2023-09-19T08:11:22;99493.06;;;24.64;46.70
11605;BME280;5858;43.076;25.626;2023-09-19T08:13:50;99492.50;;;24.72;47.70
11605;BME280;5858;43.076;25.626;2023-09-19T08:16:18;99465.41;;;24.65;45.99
11605;BME280;5858;43.076;25.626;2023-09-19T08:18:49;99473.91;;;24.79;47.16
11605;BME280;5858;43.076;25.626;2023-09-19T08:21:20;99451.19;;;24.78;45.38
11605;BME280;5858;43.076;25.626;2023-09-19T08:23:47;99459.41;;;24.99;44.77
11605;BME280;5858;43.076;25.626;2023-09-19T08:26:14;99467.09;;;25.07;44.20
11605;BME280;5858;43.076;25.626;2023-09-19T08:28:42;99346.34;;;24.58;44.47
11605;BME280;5858;43.076;25.626;2023-09-19T08:31:09;99450.34;;;25.34;42.07
11605;BME280;5858;43.076;25.626;2023-09-19T08:33:36;99435.81;;;25.38;42.81
11605;BME280;5858;43.076;25.626;2023-09-19T08:36:07;99433.34;;;25.47;40.79
11605;BME280;5858;43.076;25.626;2023-09-19T08:38:35;99445.94;;;25.68;39.63
11605;BME280;5858;43.076;25.626;2023-09-19T08:41:05;99351.81;;;25.14;39.42
11605;BME280;5858;43.076;25.626;2023-09-19T08:43:33;99448.31;;;25.85;39.78
11605;BME280;5858;43.076;25.626;2023-09-19T08:46:07;99391.09;;;25.53;39.17
11605;BME280;5858;43.076;25.626;2023-09-19T08:48:39;99383.44;;;25.50;38.02
11605;BME280;5858;43.076;25.626;2023-09-19T08:51:26;99440.06;;;25.95;39.97
11605;BME280;5858;43.076;25.626;2023-09-19T08:54:00;99393.31;;;25.56;39.62
11605;BME280;5858;43.076;25.626;2023-09-19T08:56:30;99435.03;;;26.13;37.79
11605;BME280;5858;43.076;25.626;2023-09-19T08:59:02;99438.38;;;26.04;36.33
11605;BME280;5858;43.076;25.626;2023-09-19T09:01:31;99438.03;;;26.16;37.37
11605;BME280;5858;43.076;25.626;2023-09-19T09:03:59;99442.91;;;26.29;35.18
11605;BME280;5858;43.076;25.626;2023-09-19T09:06:27;99425.84;;;26.43;35.50
11605;BME280;5858;43.076;25.626;2023-09-19T09:08:55;99367.28;;;26.13;35.55
11605;BME280;5858;43.076;25.626;2023-09-19T09:11:22;99415.63;;;26.53;35.36
11605;BME280;5858;43.076;25.626;2023-09-19T09:13:50;99299.53;;;25.64;33.09
11605;BME280;5858;43.076;25.626;2023-09-19T09:16:17;99388.03;;;26.34;33.64
11605;BME280;5858;43.076;25.626;2023-09-19T09:18:44;99417.75;;;26.61;33.80
11605;BME280;5858;43.076;25.626;2023-09-19T09:21:12;99335.41;;;26.22;32.67
11605;BME280;5858;43.076;25.626;2023-09-19T09:23:41;99362.38;;;26.54;33.30
11605;BME280;5858;43.076;25.626;2023-09-19T09:26:08;99327.28;;;26.46;33.85
11605;BME280;5858;43.076;25.626;2023-09-19T09:28:35;99312.00;;;26.35;34.36
11605;BME280;5858;43.076;25.626;2023-09-19T09:31:04;99404.22;;;27.33;37.13
11605;BME280;5858;43.076;25.626;2023-09-19T09:33:35;99262.34;;;26.65;34.96
11605;BME280;5858;43.076;25.626;2023-09-19T09:36:03;99338.38;;;27.47;34.37
11605;BME280;5858;43.076;25.626;2023-09-19T09:38:45;99311.50;;;27.20;34.39
11605;BME280;5858;43.076;25.626;2023-09-19T09:41:15;99387.88;;;27.71;35.40
11605;BME280;5858;43.076;25.626;2023-09-19T09:43:53;99337.44;;;27.33;34.64
11605;BME280;5858;43.076;25.626;2023-09-19T09:46:21;99363.94;;;27.71;33.62
11605;BME280;5858;43.076;25.626;2023-09-19T09:49:06;99335.47;;;27.81;34.19
11605;BME280;5858;43.076;25.626;2023-09-19T09:51:58;99393.06;;;28.15;33.70
11605;BME280;5858;43.076;25.626;2023-09-19T09:54:28;99383.16;;;27.95;33.06
11605;BME280;5858;43.076;25.626;2023-09-19T09:57:03;99305.63;;;27.26;32.60
11605;BME280;5858;43.076;25.626;2023-09-19T09:59:51;99344.81;;;27.37;32.84
11605;BME280;5858;43.076;25.626;2023-09-19T10:02:25;99356.84;;;27.41;33.19
11605;BME280;5858;43.076;25.626;2023-09-19T10:04:55;99381.50;;;27.75;34.67
11605;BME280;5858;43.076;25.626;2023-09-19T10:07:35;99379.78;;;27.79;34.94
11605;BME280;5858;43.076;25.626;2023-09-19T10:10:06;99378.59;;;27.85;35.07
11605;BME280;5858;43.076;25.626;2023-09-19T10:12:44;99351.25;;;27.75;34.52
11605;BME280;5858;43.076;25.626;2023-09-19T10:15:15;99302.47;;;27.81;33.31
11605;BME280;5858;43.076;25.626;2023-09-19T10:17:47;99373.81;;;28.34;33.96
11605;BME280;5858;43.076;25.626;2023-09-19T10:20:16;99219.78;;;27.35;33.53
11605;BME280;5858;43.076;25.626;2023-09-19T10:23:06;99271.88;;;27.69;32.96
11605;BME280;5858;43.076;25.626;2023-09-19T10:25:39;99352.59;;;28.15;32.44
11605;BME280;5858;43.076;25.626;2023-09-19T10:28:07;99373.50;;;28.35;33.12
11605;BME280;5858;43.076;25.626;2023-09-19T10:30:41;99368.06;;;28.11;32.47
11605;BME280;5858;43.076;25.626;2023-09-19T10:33:11;99363.72;;;27.86;33.34
11605;BME280;5858;43.076;25.626;2023-09-19T10:35:39;99373.84;;;27.48;34.81
11605;BME280;5858;43.076;25.626;2023-09-19T10:38:10;99358.25;;;27.15;35.92
11605;BME280;5858;43.076;25.626;2023-09-19T10:40:39;99326.03;;;26.91;35.77
11605;BME280;5858;43.076;25.626;2023-09-19T10:43:12;99354.50;;;27.06;35.46
11605;BME280;5858;43.076;25.626;2023-09-19T10:45:41;99309.19;;;26.45;35.74
11605;BME280;5858;43.076;25.626;2023-09-19T10:48:08;99308.59;;;26.53;36.65
11605;BME280;5858;43.076;25.626;2023-09-19T10:50:43;99330.53;;;26.82;37.76
11605;BME280;5858;43.076;25.626;2023-09-19T10:53:12;99285.72;;;26.87;36.69
11605;BME280;5858;43.076;25.626;2023-09-19T10:55:48;99328.44;;;27.51;36.35
11605;BME280;5858;43.076;25.626;2023-09-19T10:58:28;99358.22;;;27.86;36.85
11605;BME280;5858;43.076;25.626;2023-09-19T11:00:56;99293.22;;;27.53;35.97
11605;BME280;5858;43.076;25.626;2023-09-19T11:03:28;99339.31;;;28.04;35.99
11605;BME280;5858;43.076;25.626;2023-09-19T11:06:05;99316.19;;;28.24;35.73
11605;BME280;5858;43.076;25.626;2023-09-19T11:08:58;99246.16;;;27.97;34.91
11605;BME280;5858;43.076;25.626;2023-09-19T11:11:46;99308.84;;;28.51;34.90
11605;BME280;5858;43.076;25.626;2023-09-19T11:14:37;99298.06;;;28.36;32.92
11605;BME280;5858;43.076;25.626;2023-09-19T11:17:32;99330.44;;;28.07;33.30
11605;BME280;5858;43.076;25.626;2023-09-19T11:20:19;99331.56;;;28.25;33.07
11605;BME280;5858;43.076;25.626;2023-09-19T11:23:20;99333.41;;;28.48;34.35
11605;BME280;5858;43.076;25.626;2023-09-19T11:25:50;99341.63;;;28.67;34.00
11605;BME280;5858;43.076;25.626;2023-09-19T11:28:44;99330.00;;;28.70;32.47
11605;BME280;5858;43.076;25.626;2023-09-19T11:34:40;99327.53;;;28.87;33.33
11605;BME280;5858;43.076;25.626;2023-09-19T11:40:36;99229.88;;;28.33;32.77
11605;BME280;5858;43.076;25.626;2023-09-19T11:43:28;99316.22;;;28.70;33.32
11605;BME280;5858;43.076;25.626;2023-09-19T11:46:10;99251.06;;;28.33;32.65
11605;BME280;5858;43.076;25.626;2023-09-19T11:48:40;99259.78;;;28.40;32.79
11605;BME280;5858;43.076;25.626;2023-09-19T11:51:14;99282.78;;;28.76;33.77
11605;BME280;5858;43.076;25.626;2023-09-19T11:53:45;99210.03;;;28.64;33.42
11605;BME280;5858;43.076;25.626;2023-09-19T11:56:16;99302.13;;;29.31;31.29
11605;BME280;5858;43.076;25.626;2023-09-19T11:58:44;99306.03;;;29.03;32.62
11605;BME280;5858;43.076;25.626;2023-09-19T12:01:22;99192.16;;;28.34;31.70
11605;BME280;5858;43.076;25.626;2023-09-19T12:03:53;99292.75;;;29.19;33.22
11605;BME280;5858;43.076;25.626;2023-09-19T12:06:20;99299.78;;;29.11;31.92
11605;BME280;5858;43.076;25.626;2023-09-19T12:08:49;99292.34;;;29.11;33.37
11605;BME280;5858;43.076;25.626;2023-09-19T12:11:19;99294.38;;;29.06;32.84
11605;BME280;5858;43.076;25.626;2023-09-19T12:13:49;99289.19;;;29.04;32.97
11605;BME280;5858;43.076;25.626;2023-09-19T12:16:19;99198.22;;;28.17;32.19
11605;BME280;5858;43.076;25.626;2023-09-19T12:18:49;99288.19;;;28.68;33.01
11605;BME280;5858;43.076;25.626;2023-09-19T12:21:30;99161.22;;;27.90;32.63
11605;BME280;5858;43.076;25.626;2023-09-19T12:23:59;99095.38;;;27.29;32.61
11605;BME280;5858;43.076;25.626;2023-09-19T12:26:27;99214.63;;;28.22;33.07
11605;BME280;5858;43.076;25.626;2023-09-19T12:28:55;99275.41;;;28.58;32.65
11605;BME280;5858;43.076;25.626;2023-09-19T12:31:24;99234.69;;;28.41;33.33
11605;BME280;5858;43.076;25.626;2023-09-19T12:33:55;99259.50;;;28.55;32.08
11605;BME280;5858;43.076;25.626;2023-09-19T12:36:24;99280.59;;;28.46;32.26
11605;BME280;5858;43.076;25.626;2023-09-19T12:38:56;99148.03;;;27.74;33.72
11605;BME280;5858;43.076;25.626;2023-09-19T12:41:25;99175.78;;;28.10;32.80
11605;BME280;5858;43.076;25.626;2023-09-19T12:43:52;99277.13;;;28.87;32.08
11605;BME280;5858;43.076;25.626;2023-09-19T12:46:20;99259.19;;;28.89;32.75
11605;BME280;5858;43.076;25.626;2023-09-19T12:49:15;99081.34;;;27.82;33.44
11605;BME280;5858;43.076;25.626;2023-09-19T12:51:44;99235.91;;;28.95;33.71
11605;BME280;5858;43.076;25.626;2023-09-19T12:54:12;99186.59;;;28.52;33.18
11605;BME280;5858;43.076;25.626;2023-09-19T12:56:41;99269.25;;;29.21;34.10
11605;BME280;5858;43.076;25.626;2023-09-19T12:59:11;99189.44;;;28.75;33.58
11605;BME280;5858;43.076;25.626;2023-09-19T13:01:39;99195.91;;;28.98;31.40
11605;BME280;5858;43.076;25.626;2023-09-19T13:04:13;99143.13;;;28.63;31.84
11605;BME280;5858;43.076;25.626;2023-09-19T13:06:43;99223.63;;;29.29;32.82
11605;BME280;5858;43.076;25.626;2023-09-19T13:09:11;99179.66;;;29.10;32.55
11605;BME280;5858;43.076;25.626;2023-09-19T13:11:40;99205.56;;;29.36;30.33
11605;BME280;5858;43.076;25.626;2023-09-19T13:14:17;99264.78;;;29.39;30.22
11605;BME280;5858;43.076;25.626;2023-09-19T13:16:55;99254.06;;;29.24;30.39
11605;BME280;5858;43.076;25.626;2023-09-19T13:19:37;99175.56;;;28.52;30.07
11605;BME280;5858;43.076;25.626;2023-09-19T13:22:05;99167.31;;;28.39;30.54
11605;BME280;5858;43.076;25.626;2023-09-19T13:24:34;99224.53;;;28.69;30.94
11605;BME280;5858;43.076;25.626;2023-09-19T13:27:05;99174.09;;;28.28;30.16
11605;BME280;5858;43.076;25.626;2023-09-19T13:29:32;99202.84;;;28.35;30.73